INDIA METEOROLOGICAL DEPARTMENT, R.M.C. NEW DELHI
Dated:29 - 1 - 2015
METARS


Agartala   
SPECI VEAT 290400Z 01006KT 3000 HZ NSC 23/17 Q1017 NOSIG=
Ahmedabad  
VAAH 290410Z 06007KT 3500 FU NSC 16/06 Q1019 BECMG 4000=
Amritsar   
VIAR 290400Z VRB00KT 1000 R34/1200 BR SCT030 SCT100 08/07 Q1020=
Aurangabad 
VAAU 290300Z 00000KT 2000 HZ SCT020 17/14 Q1017=
Bangalore  
VOBL 290400Z 13007KT 090V160 6000 NSC 25/21 Q1019 NOSIG=
Bhaunagar  
VABV 290300Z 34002KT 2500 FU NSC 13/08 Q1017=
Bhopal     
SPECI VABP 290400Z 06004KT 2500 HZ FEW020 SCT100 13/05 Q1020 BECMG 3000M=
Bhubaneswar
VEBS 290400Z 01001KT 1800 BR NSC 25/17 Q1017 BECMG 3000 HZ=
Bhuntar    
VIBR 290400Z 00000KT 6000 FEW040 SCT030 OVC080 06/04 Q1018=
Chennai    
SPECI VOMM 290410Z 08010KT 5000 HZ SCT020 28/21 Q1015 BECMG 6000 =
Coimbatore 
VOCB 290400Z 09006KT 2500 BR SCT015 23/19 Q1017 NOSIG=
Colombo    
VCBI 290410Z 04008KT 9999 FEW018 BKN090 29/22 Q1012 NOSIG=
Delhi      
VIDP 290400Z 24005KT 0500 R28/0950 R29/0700 FG NSC 09/09 Q1019 TEMPO VIS 0800 =
Dehradun   
VIDN 290400Z 00000KT 2000 BR NSC 11/09 Q1018=
Gauhati    
VEGT 290400Z 11003KT 2000 BR SCT020 BKN100 19/15 Q1018 NOSIG=
Gaya       
VEGY 290400Z 27002KT 1000 BR BKN018 OVC080 16/15 Q1019=
Gaggal     
VIGG 290400Z 00000KT 2000 BR SCT010 BKN030 OVC080 08/06 Q1020=
Fursatganj
VIRB 290400Z 27003KT 0600 FG VV/// 10/09 Q1019=
Hyderabad  
VOHS 290410Z 12009KT 4000 HZ FEW020 SCT100 22/16 Q1018 NOSIG=
Imphal     
VEIM 290400Z 15002KT 3000 HZ FEW200 19/11 Q1020 NOSIG =
Indore     
VAID 290400Z 07007KT 2000 HZ FEW020 13/04 Q1020 BECMG 3000 HZ=
Jabalpur   
VAJB 290300Z 36002KT 00000 1000 -TSRA SCT008 BKN020 FEW030CB OVC080 14/14 Q1020=
Jaipur     
SPECI VIJP 290330Z VRB02KT 3000 HZ NSC 12/02 Q1020 NOSIG=
Khajuraho  
VAKJ 290300Z 00000KT 2500 BR SCT015 BKN025 OVC080 13/11 Q1019=
Kochi      
VOCI 290400Z 11008KT 3000 HZ FEW015 27/20 Q1013 NOSIG=
Kolkata    
VECC 290350Z 03005KT 2000 HZ NSC 21/16 Q1017 NOSIG=
Kozhikode  
VOCL 290400Z 10002KT 6000 NSC 27/21 Q1013 NOSIG=
Lucknow    
VILK 290400Z 30004KT 1000 R27/1200 MIFG VV/// 10/09 Q1019 NOSIG=
Madurai    
VOMD 290400Z 36004KT 4500 HZ FEW020 SCT100 27/21 Q1015=
Mohanbari  
VEMN 290400Z 18005KT 2500HZ FEW020 SCT100 21/16 Q1018 NO SIG=
Mumbai     
SPECI VABB 290410Z 00000KT 1500 R27/1600 HZ NSC 24/16 Q1015 NOSIG=
Nagpur     
VANP 290340Z 00000KT 1500 HZ NSC 19/11 Q1018 BECMG 2000 HZ=
Patna      
VEPT 290350Z 00000KT 1200 SCT018 FEW030CB BKN100 15/14 Q1018 NOSIG=
Raipur     
SPECI VARP 290400Z 00000KT 1500 HZ NSC 23/17 Q1017 BECMG VIS 2000M IN HZ=
Safdarjung
SPECI VIDD 290400Z 28003KT 0800 MIFG NSC 10/07 Q1019 BEMCG 1500M=
Shimla    
VISM 290400Z 23005KT 4000 BR SCT030 BKN050 06/05 Q1019=
Surat     
VASU 290300Z 01005KT 1500 HZ NSC 15/11 Q1016=
Ranchi     
VERC 290400Z 00000KT 1800 BR SCT015 BKN100 18/14 Q1020 NOSIG=
Trichy     
VOTR 290410Z 04008KT 3000 HZ SCT016 OVC080 27/20 Q1015 NOSIG=
Trivandrum 
VOTV 290410Z 04003KT 4000 HZ FEW018 30/24 Q1012 NOSIG=
Udaipur    
VAUD 290400Z 00000KT 5000 HZ NSC 10/03 Q1020 BECMG 4000 HZ=
Varanasi   
VIBN 290330Z 27004KT 1100 BR BKN020 SCT100 15/13 Q1019=
Vizag      
VOVZ 290400Z 10005KT 4000 HZ FEW018 26/19 Q1016 BECMG 4500 HZ =
Male       
VRMM 290400Z 05009KT 9999 FEW018 BKN270 29/24 Q1012 NOSIG=
Gan        
SPECI VRMG 290353Z 25014KT 6000 -RA FEW017TCU OVC080 27/27 Q1014 RERA=
Kathmandu   
VNKT 290350Z 00000KT 2000 HZ FEW015 SCT100 10/04 Q1021 BECMG FM 0450Z 3000 HZ=
Dhaka      
VGHS 290350Z 04004KT 2000 HZ NSC 22/15 Q1016 BECMG S/VIS 2500M=
Colombo     
VCBI 290410Z 04008KT 9999 FEW018 BKN090 29/22 Q1012 NOSIG=
Karachi     
OPKC 290355Z 06003KT 4000 HZ NSC 14/M0 Q1020 NOSIG=
Lahore      
OPLA 290355Z 00000KT 2000 FU SCT040 SCT100 10/06 Q1020 TEMPO 2500 A30.09=
Leh        
VILH 290330Z VRB01KT 6000 SCT050 SCT090 BKN150 M09/M20 Q1012 NOSIG=
Thoise     
VITX 290330Z VRB01KT 6000 SCT050 BKN100 M07/M20 Q1013 NOSIG=
Sri Nagar  
VISR 290330Z 32007KT 0500 SN BKN008 SCT012 BKN080 M00/M00 Q1019 TEMPO 0350M=
Jammu      
VIJU 290330Z 31004KT 2000 BR SCT025 BKN100 09/07 Q1019 BECMG 3000M=
Jodhpur    
VIJO 290330Z 06003KT 5000 HZ SKC 11/03 Q1020 NOSIG=
Bhuj-Rudra 
VABJ 290330Z VRB01KT 5000 HZ SKC 14/M01 Q1020 NOSIG=
Gorakhpur  
VEGK 290330Z VRB02KT 1000 BR FEW025 16/12 Q1018 BECMG 1500M=
Allahabad  
VIAL 290330Z 23004KT 0800 FG V/// 14/14 Q1019 BECMG 1000M=
Agra       
VIAG 290330Z VRB02KT 1500 BR SKC 08/08 Q1020 NOSIG=
Siliguri   
VEBD 290330Z 04003KT 0800 FG V/// 15/13 Q1018 BECMG 1500M=
Gwalior    
VIGR 290330Z 27003KT 2600 BR SKC 10/08 Q1019 BECMG 3000M=
Pune       
VAPO 290330Z 14004KT 3000 BR SKC 20/18 Q1018 BECMG 5000M=
Chandigarh 
VICG 290330Z 28003KT 1500 BR FEW090 09/09 Q1019 NOSIG=
Jamnagar   
VAJM 290330Z 05006KT 5000 HZ SKC 17/05 Q1019 NOSIG=